Time;durP1;ratioP1;P1;durP2;ratioP2;P2;SDS_P1;SDS_P2;PMS_P1;PMS_P2;Temp;Humidity;BMP_temperature;BMP_pressure;BME280_temperature;BME280_humidity;BME280_pressure;Samples;Min_cycle;Max_cycle;Signal;HPM_P1;HPM_P2
2022/07/10 00:00:49;;;;;;;15.97;3.57;;;;;;;18.90;54.42;101684.78;4954895;28;120145;-82
2022/07/10 00:03:14;;;;;;;12.60;2.80;;;;;;;18.91;54.59;101696.69;4967286;28;119643;-82
2022/07/10 00:05:40;;;;;;;12.60;2.97;;;;;;;18.94;54.25;101695.75;4940421;28;122511;-82
2022/07/10 00:08:09;;;;;;;13.35;3.03;;;;;;;18.90;54.31;101687.56;4964262;28;119764;-82
2022/07/10 00:10:35;;;;;;;12.18;2.78;;;;;;;18.91;54.85;101683.53;4969952;28;121974;-83
2022/07/10 00:13:00;;;;;;;12.65;2.92;;;;;;;18.85;54.51;101679.94;4920937;28;123700;-82
2022/07/10 00:15:26;;;;;;;17.57;3.30;;;;;;;18.87;55.47;101687.78;4969054;28;119785;-82
2022/07/10 00:17:52;;;;;;;16.30;3.70;;;;;;;18.91;55.27;101694.66;4936059;28;121862;-82
2022/07/10 00:20:17;;;;;;;14.93;3.15;;;;;;;18.90;55.34;101679.25;4950524;28;123873;-82
2022/07/10 00:22:43;;;;;;;9.98;3.00;;;;;;;18.89;54.66;101677.72;4942169;28;120018;-82
2022/07/10 00:25:12;;;;;;;13.43;3.30;;;;;;;18.88;55.49;101681.75;4943272;28;121675;-83
2022/07/10 00:27:38;;;;;;;18.55;3.30;;;;;;;18.90;55.45;101684.78;4969247;28;121092;-83
2022/07/10 00:30:05;;;;;;;15.17;2.87;;;;;;;18.88;54.98;101676.19;4941210;28;122332;-82
2022/07/10 00:32:30;;;;;;;13.98;3.10;;;;;;;18.86;54.84;101670.34;4952556;28;123282;-82
2022/07/10 00:34:56;;;;;;;17.63;3.47;;;;;;;18.83;55.16;101679.66;4950754;28;120477;-83
2022/07/10 00:37:22;;;;;;;12.20;3.37;;;;;;;18.85;54.91;101685.50;4967630;28;121680;-83
2022/07/10 00:39:48;;;;;;;15.00;2.93;;;;;;;18.86;55.05;101684.25;4968097;28;123254;-83
2022/07/10 00:42:17;;;;;;;12.02;2.80;;;;;;;18.84;55.30;101680.41;4950320;28;119548;-82
2022/07/10 00:44:43;;;;;;;15.27;3.20;;;;;;;18.82;54.77;101667.00;4938187;28;121882;-83
2022/07/10 00:47:10;;;;;;;17.47;3.67;;;;;;;18.74;54.71;101663.09;4932289;28;122887;-82
2022/07/10 00:49:38;;;;;;;14.15;3.17;;;;;;;18.74;54.15;101665.88;4962347;28;119575;-83
2022/07/10 00:52:07;;;;;;;14.77;3.03;;;;;;;18.73;54.81;101656.00;4934452;28;123837;-82
2022/07/10 00:54:34;;;;;;;13.70;3.00;;;;;;;18.76;54.64;101657.06;4930212;28;119953;-82
2022/07/10 00:57:03;;;;;;;14.25;3.25;;;;;;;18.76;54.42;101657.81;4949094;28;122344;-82
2022/07/10 00:59:48;;;;;;;16.33;3.08;;;;;;;18.68;54.47;101640.78;4959302;28;120755;-83
2022/07/10 01:02:14;;;;;;;14.35;2.80;;;;;;;18.68;53.76;101648.34;4951216;28;120128;-82
2022/07/10 01:05:04;;;;;;;14.38;3.15;;;;;;;18.61;54.17;101657.81;4961166;28;120179;-83
2022/07/10 01:07:31;;;;;;;14.20;3.05;;;;;;;18.66;54.06;101659.19;4930253;28;121659;-82
2022/07/10 01:09:56;;;;;;;12.88;2.80;;;;;;;18.69;54.42;101659.00;4965907;28;119883;-82
2022/07/10 01:12:22;;;;;;;14.73;3.10;;;;;;;18.63;54.22;101649.78;4967037;28;120986;-82
2022/07/10 01:14:48;;;;;;;15.70;3.10;;;;;;;18.58;53.66;101644.13;4951416;28;119731;-82
2022/07/10 01:17:14;;;;;;;15.40;3.38;;;;;;;18.67;54.89;101658.69;4958321;28;121887;-82
2022/07/10 01:19:39;;;;;;;15.63;3.40;;;;;;;18.69;53.92;101661.78;4939434;28;122957;-83
2022/07/10 01:22:05;;;;;;;16.58;3.03;;;;;;;18.66;54.05;101651.59;4967688;28;119738;-82
2022/07/10 01:24:31;;;;;;;15.18;3.35;;;;;;;18.59;54.45;101640.09;4959708;28;119975;-82
2022/07/10 01:26:56;;;;;;;14.00;3.08;;;;;;;18.63;53.97;101649.78;4944491;28;121449;-82
2022/07/10 01:29:22;;;;;;;14.48;2.90;;;;;;;18.58;54.36;101641.34;4950225;28;120732;-82
2022/07/10 01:31:48;;;;;;;13.07;3.15;;;;;;;18.52;54.14;101643.28;4938806;28;122730;-82
2022/07/10 01:34:13;;;;;;;16.58;3.20;;;;;;;18.52;54.48;101651.63;4968815;28;119817;-82
2022/07/10 01:36:40;;;;;;;14.65;2.72;;;;;;;18.49;53.91;101647.03;4962484;28;122769;-82
2022/07/10 01:39:06;;;;;;;14.85;2.90;;;;;;;18.52;54.40;101654.41;4948042;28;122719;-82
2022/07/10 01:41:33;;;;;;;18.58;2.92;;;;;;;18.50;53.27;101656.91;4945546;28;119592;-83
2022/07/10 01:44:02;;;;;;;13.63;2.60;;;;;;;18.55;54.20;101664.56;4932482;28;120683;-82
2022/07/10 01:46:28;;;;;;;14.65;2.72;;;;;;;18.52;53.52;101665.53;4928564;28;121353;-82
2022/07/10 01:48:57;;;;;;;12.10;2.50;;;;;;;18.50;54.04;101663.22;4965908;28;120220;-82
2022/07/10 01:51:25;;;;;;;12.95;2.92;;;;;;;18.54;54.32;101665.81;4950349;28;122953;-82
2022/07/10 01:53:53;;;;;;;18.65;2.70;;;;;;;18.55;52.88;101670.88;4956035;28;120144;-82
2022/07/10 01:56:19;;;;;;;12.10;2.40;;;;;;;18.54;53.04;101657.47;4927866;28;122909;-82
2022/07/10 01:59:05;;;;;;;12.43;2.63;;;;;;;18.42;52.62;101646.16;4951472;28;121142;-82
2022/07/10 02:01:31;;;;;;;11.20;2.58;;;;;;;18.47;52.89;101655.84;4934123;28;120086;-83
2022/07/10 02:06:45;;;;;;;12.38;2.55;;;;;;;18.40;52.56;101659.00;4951165;28;121818;-82
2022/07/10 02:09:11;;;;;;;11.90;2.40;;;;;;;18.33;52.22;101646.28;4948194;28;119851;-82
2022/07/10 02:11:36;;;;;;;12.65;2.50;;;;;;;18.35;51.68;101657.69;4964587;28;122196;-83
2022/07/10 02:14:02;;;;;;;11.33;2.50;;;;;;;18.30;52.70;101647.25;4947324;28;123203;-82
2022/07/10 02:16:49;;;;;;;15.50;2.72;;;;;;;18.28;52.71;101657.31;4953517;28;119628;-82
2022/07/10 02:19:15;;;;;;;15.90;2.73;;;;;;;18.27;52.39;101645.44;4955069;28;120637;-82
2022/07/10 02:21:41;;;;;;;15.40;2.70;;;;;;;18.32;52.20;101644.75;4950831;28;119749;-82
2022/07/10 02:24:06;;;;;;;12.90;2.27;;;;;;;18.34;52.54;101658.94;4948423;28;119665;-82
2022/07/10 02:26:32;;;;;;;10.53;2.40;;;;;;;18.32;51.85;101653.09;4945540;28;123818;-82
2022/07/10 02:28:57;;;;;;;12.48;2.35;;;;;;;18.29;51.78;101642.94;4930870;28;120052;-82
2022/07/10 02:31:23;;;;;;;15.75;3.05;;;;;;;18.21;50.97;101644.56;4949558;28;119703;-82
2022/07/10 02:33:48;;;;;;;12.23;2.37;;;;;;;18.19;51.13;101643.50;4928243;28;122849;-82
2022/07/10 02:36:14;;;;;;;9.70;1.97;;;;;;;18.14;51.79;101647.75;4962529;28;121218;-83
2022/07/10 02:38:40;;;;;;;9.37;2.07;;;;;;;18.10;51.80;101636.84;4948419;28;122425;-82
2022/07/10 02:41:08;;;;;;;12.10;2.10;;;;;;;18.21;51.89;101647.34;4946557;28;120279;-83
2022/07/10 02:43:34;;;;;;;11.67;2.23;;;;;;;18.23;52.09;101646.88;4950990;28;122154;-82
2022/07/10 02:45:59;;;;;;;13.07;2.63;;;;;;;18.21;52.92;101641.78;4950286;28;122613;-83
2022/07/10 02:48:28;;;;;;;10.67;2.17;;;;;;;18.22;51.65;101640.56;4949118;28;119813;-83
2022/07/10 02:50:53;;;;;;;12.27;2.28;;;;;;;18.23;51.81;101650.44;4958777;28;122623;-83
2022/07/10 02:53:19;;;;;;;11.23;1.90;;;;;;;18.23;52.70;101647.66;4963338;28;122732;-82
2022/07/10 02:55:45;;;;;;;8.97;2.00;;;;;;;18.25;52.10;101647.94;4938989;28;122196;-82
2022/07/10 02:58:10;;;;;;;10.70;2.40;;;;;;;18.23;51.89;101655.97;4950966;28;121860;-81
2022/07/10 03:00:36;;;;;;;10.43;2.40;;;;;;;18.24;50.72;101646.41;4970657;28;119802;-82
2022/07/10 03:03:02;;;;;;;9.48;2.00;;;;;;;18.19;52.20;101646.28;4948994;28;124465;-82
2022/07/10 03:05:28;;;;;;;8.88;1.80;;;;;;;18.22;50.99;101656.47;4950598;28;120049;-82
2022/07/10 03:07:54;;;;;;;8.65;1.80;;;;;;;18.16;50.61;101644.47;4954471;28;119932;-82
2022/07/10 03:10:20;;;;;;;9.60;2.33;;;;;;;18.17;51.35;101646.78;4971914;28;119863;-82
2022/07/10 03:12:46;;;;;;;13.20;2.17;;;;;;;18.12;51.26;101639.13;4968705;28;123340;-82
2022/07/10 03:15:13;;;;;;;8.95;2.42;;;;;;;18.16;51.80;101650.81;4970876;28;119786;-82
2022/07/10 03:17:39;;;;;;;11.23;2.17;;;;;;;18.07;51.02;101634.25;4965181;28;122306;-82
2022/07/10 03:20:06;;;;;;;11.68;2.08;;;;;;;18.16;51.86;101647.25;4968325;28;122947;-82
2022/07/10 03:22:32;;;;;;;9.30;1.80;;;;;;;18.12;52.49;101641.91;4955823;28;119743;-82
2022/07/10 03:24:58;;;;;;;10.23;1.80;;;;;;;18.16;51.44;101645.25;4966644;28;123142;-81
2022/07/10 03:27:24;;;;;;;11.93;2.33;;;;;;;18.12;50.86;101660.56;4953315;28;119851;-82
2022/07/10 03:29:49;;;;;;;10.68;2.17;;;;;;;18.06;51.57;101641.81;4934754;28;122317;-82
2022/07/10 03:32:15;;;;;;;11.03;2.17;;;;;;;18.04;52.25;101635.22;4945608;28;119972;-82
2022/07/10 03:34:43;;;;;;;12.00;2.27;;;;;;;18.15;51.75;101649.28;4966193;28;121092;-82
2022/07/10 03:37:09;;;;;;;12.80;2.30;;;;;;;18.11;51.60;101640.38;4961622;28;119718;-82
2022/07/10 03:39:35;;;;;;;10.88;2.40;;;;;;;18.16;52.33;101650.03;4960220;28;123790;-82
2022/07/10 03:42:01;;;;;;;10.70;2.20;;;;;;;18.07;51.78;101634.25;4954815;28;120194;-82
2022/07/10 03:44:29;;;;;;;11.55;2.08;;;;;;;18.18;52.10;101653.84;4961472;28;123149;-82
2022/07/10 03:46:55;;;;;;;13.40;2.73;;;;;;;18.17;52.17;101648.78;4966598;28;122406;-82
2022/07/10 03:49:20;;;;;;;12.47;2.33;;;;;;;18.21;52.40;101643.81;4940496;28;121685;-82
2022/07/10 03:51:46;;;;;;;11.93;2.13;;;;;;;18.23;51.67;101638.56;4945434;28;123671;-82
2022/07/10 03:54:12;;;;;;;10.97;1.93;;;;;;;18.25;51.11;101649.94;4946302;28;120320;-82
2022/07/10 03:59:22;;;;;;;10.70;2.15;;;;;;;18.19;52.53;101638.72;4960227;28;122252;-80
2022/07/10 04:01:47;;;;;;;9.97;2.30;;;;;;;18.26;51.69;101637.59;4953671;28;120392;-81
2022/07/10 04:04:13;;;;;;;9.00;1.80;;;;;;;18.39;52.61;101652.69;4956440;28;119511;-81
2022/07/10 04:06:39;;;;;;;10.67;2.37;;;;;;;18.40;51.80;101645.88;4930374;28;120004;-81
2022/07/10 04:09:07;;;;;;;10.53;2.13;;;;;;;18.50;51.79;101646.56;4943785;28;121690;-81
2022/07/10 04:11:36;;;;;;;12.45;2.00;;;;;;;18.55;51.40;101637.53;4943004;28;122676;-81
2022/07/10 04:14:02;;;;;;;10.63;2.23;;;;;;;18.62;51.49;101650.25;4949386;28;120674;-82
2022/07/10 04:16:27;;;;;;;11.07;2.10;;;;;;;18.68;53.12;101645.56;4951982;28;121071;-81
2022/07/10 04:18:56;;;;;;;13.10;2.50;;;;;;;18.72;52.77;101635.03;4968410;28;122715;-82
2022/07/10 04:21:21;;;;;;;9.32;1.77;;;;;;;18.78;52.98;101626.75;4951536;28;119852;-82
2022/07/10 04:23:47;;;;;;;9.53;2.43;;;;;;;18.83;52.39;101635.19;4946673;28;122273;-81
2022/07/10 04:26:13;;;;;;;11.97;2.10;;;;;;;18.90;51.96;101648.66;4955145;28;122833;-81
2022/07/10 04:28:41;;;;;;;10.35;1.75;;;;;;;18.95;51.69;101655.56;4930899;28;120791;-81
2022/07/10 04:31:09;;;;;;;12.07;2.40;;;;;;;18.96;52.76;101643.97;4952311;28;121842;-81
2022/07/10 04:33:34;;;;;;;11.02;2.00;;;;;;;19.02;52.59;101650.34;4934382;28;120761;-82
2022/07/10 04:36:00;;;;;;;9.90;2.00;;;;;;;19.04;52.90;101651.88;4936491;28;121810;-81
2022/07/10 04:38:25;;;;;;;11.27;2.07;;;;;;;19.02;52.80;101647.56;4952797;28;123259;-81
2022/07/10 04:40:51;;;;;;;12.77;2.30;;;;;;;19.09;52.64;101648.41;4951872;28;120137;-81
2022/07/10 04:43:17;;;;;;;14.50;2.70;;;;;;;19.05;53.49;101633.94;4952610;28;121754;-81
2022/07/10 04:45:42;;;;;;;13.57;2.38;;;;;;;19.14;52.52;101647.69;4932990;28;123921;-82
2022/07/10 04:48:08;;;;;;;13.63;2.30;;;;;;;19.10;53.52;101644.38;4948130;28;119986;-82
2022/07/10 04:50:34;;;;;;;13.47;2.17;;;;;;;19.06;53.39;101646.59;4967150;28;120832;-82
2022/07/10 04:53:02;;;;;;;12.05;2.38;;;;;;;19.14;53.61;101651.25;4947757;28;119804;-82
2022/07/10 04:55:28;;;;;;;13.43;2.42;;;;;;;19.13;54.34;101646.16;4948516;28;122485;-81
2022/07/10 04:57:53;;;;;;;11.75;2.22;;;;;;;19.17;53.98;101641.94;4949411;28;122947;-82
2022/07/10 05:00:19;;;;;;;10.87;2.40;;;;;;;19.19;52.61;101635.91;4944456;28;119944;-81
2022/07/10 05:02:47;;;;;;;9.68;2.10;;;;;;;19.20;52.98;101645.78;4935795;28;122752;-82
2022/07/10 05:05:13;;;;;;;12.45;2.10;;;;;;;19.20;53.48;101645.78;4943264;28;123776;-82
2022/07/10 05:07:42;;;;;;;10.52;2.38;;;;;;;19.19;53.93;101641.47;4931654;28;119789;-82
2022/07/10 05:10:08;;;;;;;10.40;2.50;;;;;;;19.28;53.73;101653.19;4938633;28;121967;-82
2022/07/10 05:12:34;;;;;;;15.98;2.67;;;;;;;19.31;53.17;101659.78;4925777;28;119713;-81
2022/07/10 05:15:01;;;;;;;10.93;2.47;;;;;;;19.31;53.53;101660.56;4967185;28;122325;-82
2022/07/10 05:17:31;;;;;;;9.50;1.90;;;;;;;19.28;53.13;101644.09;4948320;28;121830;-82
2022/07/10 05:19:57;;;;;;;9.93;1.95;;;;;;;19.40;54.54;101665.25;4947939;28;119623;-81
2022/07/10 05:22:24;;;;;;;9.00;2.20;;;;;;;19.44;52.04;101663.00;4976343;28;120298;-82
2022/07/10 05:24:51;;;;;;;9.57;2.00;;;;;;;19.44;53.07;101665.03;4922553;28;123279;-82
2022/07/10 05:27:19;;;;;;;8.73;2.22;;;;;;;19.44;53.34;101659.47;4961230;28;120160;-82
2022/07/10 05:29:46;;;;;;;11.35;2.20;;;;;;;19.40;53.23;101656.88;4951510;28;121735;-82
2022/07/10 05:32:11;;;;;;;11.80;2.20;;;;;;;19.42;52.09;101662.72;4961610;28;120007;-82
2022/07/10 05:34:37;;;;;;;12.07;2.10;;;;;;;19.43;52.98;101672.59;4949137;28;121765;-83
2022/07/10 05:37:03;;;;;;;11.17;2.10;;;;;;;19.36;53.18;101661.88;4926918;28;122940;-82
2022/07/10 05:39:29;;;;;;;9.07;1.80;;;;;;;19.43;54.20;101657.94;4960601;28;120322;-81
2022/07/10 05:41:55;;;;;;;10.57;2.17;;;;;;;19.48;52.28;101662.78;4965350;28;122126;-81
2022/07/10 05:44:21;;;;;;;9.45;1.90;;;;;;;19.49;52.15;101673.44;4959778;28;123276;-82
2022/07/10 05:46:47;;;;;;;11.53;1.97;;;;;;;19.46;51.30;101657.72;4960783;28;120004;-83
2022/07/10 05:49:12;;;;;;;10.18;1.73;;;;;;;19.51;50.85;101670.91;4951298;28;121546;-82
2022/07/10 05:51:38;;;;;;;9.00;1.85;;;;;;;19.42;51.66;101665.50;4971960;28;121557;-82
2022/07/10 05:54:04;;;;;;;8.67;1.60;;;;;;;19.45;50.38;101675.66;4920660;28;122465;-82
2022/07/10 05:56:30;;;;;;;8.75;1.80;;;;;;;19.38;49.93;101683.66;4940830;28;121590;-81
2022/07/10 05:58:56;;;;;;;8.52;2.08;;;;;;;19.31;50.63;101676.50;4957818;28;120743;-81
2022/07/10 06:01:28;;;;;;;8.30;1.70;;;;;;;19.24;51.20;101668.56;4951345;28;122367;-81
2022/07/10 06:03:54;;;;;;;10.38;2.13;;;;;;;19.25;50.82;101676.44;4951226;28;120176;-82
2022/07/10 06:06:19;;;;;;;9.23;1.60;;;;;;;19.18;51.31;101662.94;4931284;28;120020;-82
2022/07/10 06:08:45;;;;;;;9.50;1.67;;;;;;;19.23;52.13;101681.72;4969315;28;119496;-81
2022/07/10 06:11:13;;;;;;;10.60;2.10;;;;;;;19.16;51.74;101657.06;4945391;28;122930;-82
2022/07/10 06:13:39;;;;;;;8.17;1.80;;;;;;;19.24;52.27;101661.00;4955359;28;119916;-82
2022/07/10 06:16:10;;;;;;;10.48;2.05;;;;;;;19.19;51.23;101649.81;4931000;28;121049;-82
2022/07/10 06:19:05;;;;;;;7.97;1.98;;;;;;;19.22;50.87;101648.81;4877729;28;121052;-82
2022/07/10 06:21:31;;;;;;;12.15;2.28;;;;;;;19.29;51.32;101667.88;4966509;28;122368;-81
2022/07/10 06:23:56;;;;;;;10.05;1.80;;;;;;;19.30;51.72;101659.03;4950764;28;123631;-82
2022/07/10 06:26:22;;;;;;;10.10;2.15;;;;;;;19.31;52.58;101659.78;4965406;28;120009;-81
2022/07/10 06:28:51;;;;;;;10.30;2.25;;;;;;;19.33;51.08;101648.94;4968260;28;119795;-82
2022/07/10 06:31:17;;;;;;;9.13;2.20;;;;;;;19.34;50.85;101661.59;4946018;28;122910;-82
2022/07/10 06:33:42;;;;;;;10.77;2.00;;;;;;;19.37;51.04;101668.19;4948044;28;119880;-82
2022/07/10 06:36:08;;;;;;;9.67;2.03;;;;;;;19.37;50.73;101660.63;4934951;28;122147;-82
2022/07/10 06:38:34;;;;;;;10.95;1.95;;;;;;;19.40;51.06;101665.25;4927762;28;120281;-81
2022/07/10 06:41:00;;;;;;;6.32;1.70;;;;;;;19.41;51.28;101661.19;4927092;28;122137;-82
2022/07/10 06:43:25;;;;;;;8.93;1.88;;;;;;;19.48;49.39;101669.13;4931870;28;123048;-82
2022/07/10 06:45:51;;;;;;;7.85;1.85;;;;;;;19.52;49.60;101657.75;4966896;28;120120;-82
2022/07/10 06:48:17;;;;;;;9.40;1.90;;;;;;;19.48;49.05;101666.31;4950280;28;122698;-82
2022/07/10 06:50:43;;;;;;;11.02;1.90;;;;;;;19.51;48.95;101664.59;4950218;28;120404;-82
2022/07/10 06:53:08;;;;;;;11.30;1.90;;;;;;;19.50;47.49;101672.16;4966812;28;119825;-82
2022/07/10 06:55:34;;;;;;;10.73;2.00;;;;;;;19.50;47.91;101672.16;4967211;28;119899;-82
2022/07/10 06:58:01;;;;;;;8.43;2.00;;;;;;;19.58;49.93;101676.06;4934756;28;123169;-82
2022/07/10 07:00:27;;;;;;;8.27;1.90;;;;;;;19.56;48.49;101656.31;4967745;28;119855;-82
2022/07/10 07:02:53;;;;;;;9.07;1.95;;;;;;;19.59;48.94;101660.91;4957181;28;120440;-81
2022/07/10 07:05:22;;;;;;;9.77;1.75;;;;;;;19.63;48.84;101672.59;4947746;28;119675;-82
2022/07/10 07:07:48;;;;;;;9.87;2.10;;;;;;;19.68;47.97;101662.03;4955505;28;121801;-82
2022/07/10 07:10:22;;;;;;;11.93;2.15;;;;;;;19.65;47.37;101652.63;4937794;28;121306;-81
2022/07/10 07:12:48;;;;;;;9.90;1.80;;;;;;;19.71;48.43;101653.44;4947179;28;120226;-82
2022/07/10 07:15:17;;;;;;;11.10;2.13;;;;;;;19.79;49.55;101656.56;4929035;28;120314;-83
2022/07/10 07:23:19;;;;;;;8.38;2.25;;;;;;;19.83;48.47;101638.38;4913025;28;122189;-82
2022/07/10 07:25:48;;;;;;;8.52;1.77;;;;;;;19.88;47.82;101648.81;4916865;28;120438;-82
2022/07/10 07:28:15;;;;;;;8.82;1.88;;;;;;;19.91;46.88;101641.50;4926466;28;122389;-82
2022/07/10 07:30:42;;;;;;;10.68;1.80;;;;;;;19.96;47.19;101654.69;4932173;28;123361;-82
2022/07/10 07:33:07;;;;;;;9.07;1.88;;;;;;;19.93;48.15;101631.41;4948921;28;120087;-82
2022/07/10 07:35:33;;;;;;;12.25;1.90;;;;;;;20.06;48.39;101650.47;4933426;28;120256;-82
2022/07/10 07:38:02;;;;;;;11.35;2.13;;;;;;;20.12;48.69;101659.66;4902828;28;121617;-82
2022/07/10 07:40:27;;;;;;;9.63;2.10;;;;;;;20.17;48.07;101666.53;4917430;28;119998;-82
2022/07/10 07:42:54;;;;;;;9.83;2.00;;;;;;;20.18;48.21;101663.25;4948766;28;123361;-82
2022/07/10 07:45:40;;;;;;;13.98;2.50;;;;;;;20.14;47.41;101651.56;4910271;28;121469;-82
2022/07/10 07:48:05;;;;;;;10.02;2.40;;;;;;;20.14;48.12;101648.03;4930412;28;122377;-82
2022/07/10 07:50:35;;;;;;;10.15;2.10;;;;;;;20.21;47.40;101645.56;4937980;28;123184;-81
2022/07/10 07:53:03;;;;;;;9.02;1.77;;;;;;;20.31;48.17;101659.28;4964705;28;121313;-81
2022/07/10 07:55:30;;;;;;;8.70;1.88;;;;;;;20.31;46.96;101656.50;4951993;28;123639;-82
2022/07/10 07:57:56;;;;;;;11.18;2.38;;;;;;;20.33;47.58;101665.13;4943852;28;122683;-83
2022/07/10 08:00:24;;;;;;;9.93;1.93;;;;;;;20.36;47.19;101673.28;4967672;28;119728;-82
2022/07/10 08:02:50;;;;;;;13.80;2.05;;;;;;;20.42;46.70;101662.97;4965412;28;119743;-82
2022/07/10 08:05:17;;;;;;;8.40;1.58;;;;;;;20.49;46.91;101661.75;4962755;28;121108;-82
2022/07/10 08:07:46;;;;;;;9.55;2.08;;;;;;;20.59;47.31;101685.41;4960390;28;121333;-82
2022/07/10 08:10:14;;;;;;;8.63;1.95;;;;;;;20.60;47.41;101667.41;4962822;28;120683;-82
2022/07/10 08:12:41;;;;;;;9.90;1.87;;;;;;;20.79;47.14;101674.09;4961805;28;120322;-81
2022/07/10 08:15:11;;;;;;;9.35;1.90;;;;;;;20.81;46.15;101660.41;4963685;28;122216;-82
2022/07/10 08:17:37;;;;;;;9.60;1.87;;;;;;;20.87;45.65;101673.66;4952849;28;124107;-82
2022/07/10 08:20:08;;;;;;;9.80;2.25;;;;;;;20.90;44.79;101667.84;4971215;28;119759;-82
2022/07/10 08:22:34;;;;;;;7.80;1.92;;;;;;;20.87;46.45;101662.50;4966874;28;119828;-83
2022/07/10 08:25:00;;;;;;;7.63;1.63;;;;;;;20.81;45.44;101657.63;4966706;28;120555;-82
2022/07/10 08:27:25;;;;;;;7.30;1.60;;;;;;;20.85;44.09;101676.94;4948526;28;122050;-82
2022/07/10 08:29:54;;;;;;;7.88;1.70;;;;;;;20.82;45.23;101664.75;4959768;28;120382;-82
2022/07/10 08:32:20;;;;;;;10.02;1.40;;;;;;;20.89;45.94;101666.31;4929056;28;121451;-82
2022/07/10 08:34:45;;;;;;;9.82;2.00;;;;;;;20.87;45.94;101663.25;4960058;28;120307;-83
2022/07/10 08:37:14;;;;;;;8.57;1.60;;;;;;;20.90;45.99;101667.84;4937872;28;121767;-82
2022/07/10 08:39:40;;;;;;;9.75;2.17;;;;;;;20.89;46.61;101671.88;4926744;28;120279;-83
2022/07/10 08:42:10;;;;;;;8.38;1.50;;;;;;;20.85;44.54;101671.34;4944870;28;121826;-83
2022/07/10 08:44:37;;;;;;;10.18;1.70;;;;;;;20.81;44.16;101673.59;4954198;28;123481;-82
2022/07/10 08:47:03;;;;;;;9.55;2.15;;;;;;;20.76;47.50;101672.31;4970367;28;121393;-82
2022/07/10 08:49:31;;;;;;;8.40;1.77;;;;;;;20.76;46.15;101668.75;4945303;28;123024;-82
2022/07/10 08:51:59;;;;;;;7.25;1.50;;;;;;;20.77;46.93;101676.63;4946151;28;120065;-82
2022/07/10 08:54:28;;;;;;;6.03;1.30;;;;;;;20.78;46.34;101661.41;4961903;28;123276;-82
2022/07/10 08:56:56;;;;;;;7.18;1.73;;;;;;;20.80;47.09;101670.03;4944280;28;122589;-83
2022/07/10 08:59:22;;;;;;;7.10;1.85;;;;;;;20.87;47.52;101656.91;4960906;28;121383;-81
2022/07/10 09:01:49;;;;;;;7.87;1.87;;;;;;;21.01;46.25;101672.69;4961528;28;122298;-82
2022/07/10 09:04:22;;;;;;;6.57;1.60;;;;;;;21.04;46.67;101671.69;4959785;28;123884;-82
2022/07/10 09:06:48;;;;;;;6.67;1.60;;;;;;;21.04;46.07;101682.84;4961492;28;120266;-82
2022/07/10 09:09:14;;;;;;;7.00;1.35;;;;;;;20.97;45.73;101695.25;4949222;28;121881;-82
2022/07/10 09:11:42;;;;;;;7.20;1.60;;;;;;;20.91;46.31;101674.94;4944219;28;121306;-82
2022/07/10 09:14:13;;;;;;;7.97;1.70;;;;;;;20.88;47.30;101680.75;4933891;28;124223;-82
2022/07/10 09:16:40;;;;;;;7.03;1.70;;;;;;;20.88;47.25;101677.97;4930467;28;122710;-82
2022/07/10 09:19:20;;;;;;;7.63;1.45;;;;;;;20.90;46.46;101684.56;4948566;28;119981;-81
2022/07/10 09:21:48;;;;;;;8.63;1.90;;;;;;;20.96;46.39;101676.22;4948781;28;122283;-81
2022/07/10 09:24:16;;;;;;;5.40;1.25;;;;;;;20.95;46.13;101674.69;4946525;28;120618;-81
2022/07/10 09:26:42;;;;;;;7.53;1.60;;;;;;;20.97;45.74;101681.31;4945141;28;121433;-81
2022/07/10 09:29:12;;;;;;;9.68;2.05;;;;;;;20.97;46.81;101680.53;4963181;28;121649;-81
2022/07/10 09:31:55;;;;;;;10.30;1.92;;;;;;;21.01;47.66;101678.28;4946654;28;119699;-81
2022/07/10 09:34:43;;;;;;;10.13;1.88;;;;;;;21.12;48.56;101678.34;4981141;28;121665;-81
2022/07/10 09:37:24;;;;;;;7.47;1.80;;;;;;;21.19;47.00;101661.13;4963263;28;121047;-82
2022/07/10 09:40:03;;;;;;;9.93;2.10;;;;;;;21.16;47.61;101670.50;4945493;28;121370;-82
2022/07/10 09:42:37;;;;;;;9.13;1.80;;;;;;;21.10;48.16;101661.34;4963569;28;120321;-81
2022/07/10 09:45:24;;;;;;;6.57;1.75;;;;;;;21.24;48.38;101660.41;4946562;28;124262;-82
2022/07/10 09:48:00;;;;;;;9.50;1.90;;;;;;;21.26;47.83;101643.91;4946342;28;119793;-82
2022/07/10 09:50:33;;;;;;;7.45;1.55;;;;;;;21.46;47.59;101656.94;4961737;28;120626;-82
2022/07/10 09:53:01;;;;;;;5.88;1.27;;;;;;;21.46;45.99;101648.56;4950642;28;121726;-82
2022/07/10 09:55:31;;;;;;;6.82;1.40;;;;;;;21.47;47.37;101664.03;4962034;28;120161;-82
2022/07/10 09:58:08;;;;;;;9.07;1.60;;;;;;;21.43;45.60;101667.06;4961502;28;123438;-81
2022/07/10 10:00:41;;;;;;;7.88;1.75;;;;;;;21.32;46.22;101647.50;4979604;28;120270;-81
2022/07/10 10:03:09;;;;;;;5.73;1.30;;;;;;;21.41;46.69;101658.44;4962326;28;121720;-82
2022/07/10 10:05:54;;;;;;;11.20;2.00;;;;;;;21.49;47.12;101666.31;4944448;28;121636;-81
2022/07/10 10:08:30;;;;;;;7.65;1.85;;;;;;;21.39;46.62;101655.38;4944992;28;120654;-82
2022/07/10 10:10:58;;;;;;;8.13;1.75;;;;;;;21.38;46.94;101665.03;4948330;28;120222;-82
2022/07/10 10:13:30;;;;;;;10.18;1.50;;;;;;;21.43;47.06;101664.28;4946139;28;120081;-81
2022/07/10 10:15:57;;;;;;;6.53;1.83;;;;;;;21.52;46.86;101666.06;4948698;28;120233;-82
2022/07/10 10:18:24;;;;;;;6.53;1.52;;;;;;;21.58;46.67;101647.34;4946614;28;121952;-82
2022/07/10 10:20:52;;;;;;;8.53;1.53;;;;;;;21.73;46.71;101663.84;4930815;28;122017;-82
2022/07/10 10:23:20;;;;;;;9.57;1.65;;;;;;;21.73;45.20;101669.44;4946732;28;122097;-82
2022/07/10 10:25:51;;;;;;;6.50;1.52;;;;;;;21.61;45.64;101656.72;4963412;28;120521;-82
2022/07/10 10:28:23;;;;;;;6.57;1.48;;;;;;;21.64;46.87;101661.28;4963713;28;120249;-82
2022/07/10 10:30:58;;;;;;;11.18;1.80;;;;;;;21.60;46.47;101672.72;4964572;28;120020;-82
2022/07/10 10:33:42;;;;;;;7.20;1.55;;;;;;;21.56;47.50;101671.44;4945259;28;123096;-82
2022/07/10 10:36:36;;;;;;;7.15;1.55;;;;;;;21.52;47.37;101665.31;4963754;28;120064;-82
2022/07/10 10:39:16;;;;;;;7.78;1.50;;;;;;;21.60;47.64;101677.53;4948979;28;120478;-82
2022/07/10 10:41:52;;;;;;;6.57;1.77;;;;;;;21.69;46.73;101674.50;4964098;28;120374;-81
2022/07/10 10:44:17;;;;;;;8.88;1.30;;;;;;;21.70;47.61;101667.66;4962612;28;120484;-81
2022/07/10 10:47:05;;;;;;;9.73;1.63;;;;;;;21.69;45.92;101672.47;4929932;28;122938;-82
2022/07/10 10:49:50;;;;;;;7.97;1.53;;;;;;;21.63;46.83;101660.53;4947104;28;120357;-82
2022/07/10 10:52:17;;;;;;;7.55;1.52;;;;;;;21.69;46.98;101682.88;4945994;28;121076;-81
2022/07/10 10:55:13;;;;;;;6.32;1.75;;;;;;;21.72;47.21;101674.25;4929550;28;123551;-83
2022/07/10 10:57:45;;;;;;;7.20;1.40;;;;;;;21.72;46.09;101679.84;4930409;28;120006;-82
2022/07/10 11:00:14;;;;;;;8.15;1.70;;;;;;;21.70;47.94;101671.19;4963024;28;121054;-82
2022/07/10 11:02:41;;;;;;;10.17;2.13;;;;;;;21.76;48.61;101679.59;4949075;28;123016;-82
2022/07/10 11:08:00;;;;;;;8.83;1.60;;;;;;;21.90;47.29;101678.59;4947251;28;121851;-82
2022/07/10 11:10:36;;;;;;;7.18;1.85;;;;;;;21.96;46.43;101668.19;4963157;28;120105;-82
2022/07/10 11:13:13;;;;;;;10.32;1.60;;;;;;;21.97;46.97;101666.16;4963519;28;121503;-82
2022/07/10 11:15:41;;;;;;;9.02;2.08;;;;;;;22.01;46.40;101680.66;4979133;28;120415;-82
2022/07/10 11:18:14;;;;;;;8.30;1.70;;;;;;;22.09;46.59;101678.16;4964320;28;122197;-82
2022/07/10 11:20:46;;;;;;;8.43;2.00;;;;;;;22.01;46.08;101675.84;4963241;28;119788;-82
2022/07/10 11:23:31;;;;;;;7.97;1.92;;;;;;;21.97;45.80;101686.47;4945468;28;123287;-82
2022/07/10 11:26:08;;;;;;;8.25;1.88;;;;;;;21.97;46.71;101692.06;4934029;28;120320;-82
2022/07/10 11:28:43;;;;;;;7.72;1.77;;;;;;;21.93;46.52;101696.38;4949755;28;123709;-82
2022/07/10 11:31:08;;;;;;;8.40;1.75;;;;;;;21.85;46.22;101679.38;4944947;28;121944;-82